HAZ282 VHHH-ROAH
Flight info
| Callsign | HAZ282 |
|---|---|
| Flight time | 1h 53m |
| Altitude | 37000 |
| Route | DUMEP V631 ENVAR M750 DADON G581 HCN J7 PICHU Q13 IGURU Y57 VELNO |
| Aircraft | B77W/H-SDE1E2E3FGHIJ2J3J4J5M1RWXY/LB1D1 |
Departure
| Time | 2026-04-21 08:59 |
|---|---|
| Airport | Hong Kong International Airport (VHHH) |
Arrival
| Time | 2026-04-21 10:53 |
|---|---|
| Airport | Naha International Airport (ROAH) |
| Time | Latitude | Longitude | Altitude | Speed | Heading |
|---|---|---|---|---|---|
| 2026-04-21 08:04 | 22.31353 | 113.92471 | 37 ft | 0 kts | 25° |
| 2026-04-21 08:45 | 22.31351 | 113.92470 | 37 ft | 2 kts | 25° |
| 2026-04-21 08:45 | 22.31327 | 113.92457 | 36 ft | 4 kts | 25° |
| 2026-04-21 08:45 | 22.31303 | 113.92445 | 35 ft | 4 kts | 25° |
| 2026-04-21 08:45 | 22.31283 | 113.92432 | 36 ft | 4 kts | 75° |
| 2026-04-21 08:46 | 22.31285 | 113.92412 | 34 ft | 2 kts | 116° |
| 2026-04-21 08:46 | 22.31296 | 113.92387 | 33 ft | 4 kts | 116° |
| 2026-04-21 08:46 | 22.31301 | 113.92377 | 34 ft | 0 kts | 116° |
| 2026-04-21 08:51 | 22.31285 | 113.92411 | 34 ft | 10 kts | 116° |
| 2026-04-21 08:52 | 22.31243 | 113.92491 | 37 ft | 12 kts | 136° |
| 2026-04-21 08:52 | 22.31142 | 113.92488 | 37 ft | 16 kts | 205° |
| 2026-04-21 08:52 | 22.31045 | 113.92437 | 37 ft | 20 kts | 206° |
| 2026-04-21 08:52 | 22.30903 | 113.92363 | 37 ft | 26 kts | 206° |
| 2026-04-21 08:53 | 22.30750 | 113.92347 | 37 ft | 20 kts | 161° |
| 2026-04-21 08:53 | 22.30659 | 113.92436 | 37 ft | 20 kts | 86° |
| 2026-04-21 08:53 | 22.30700 | 113.92578 | 37 ft | 20 kts | 71° |
| 2026-04-21 08:53 | 22.30744 | 113.92719 | 37 ft | 20 kts | 70° |
| 2026-04-21 08:54 | 22.30790 | 113.92859 | 37 ft | 20 kts | 71° |
| 2026-04-21 08:54 | 22.30834 | 113.92998 | 37 ft | 17 kts | 70° |
| 2026-04-21 08:54 | 22.30862 | 113.93083 | 37 ft | 0 kts | 71° |
| 2026-04-21 08:55 | 22.30869 | 113.93106 | 37 ft | 11 kts | 71° |
| 2026-04-21 08:55 | 22.30876 | 113.93193 | 37 ft | 8 kts | 109° |
| 2026-04-21 08:56 | 22.30861 | 113.93210 | 37 ft | 0 kts | 141° |
| 2026-04-21 08:56 | 22.30842 | 113.93224 | 37 ft | 12 kts | 150° |
| 2026-04-21 08:56 | 22.30738 | 113.93232 | 39 ft | 18 kts | 216° |
| 2026-04-21 08:56 | 22.30702 | 113.93156 | 39 ft | 0 kts | 251° |
| 2026-04-21 08:57 | 22.30701 | 113.93155 | 39 ft | 0 kts | 251° |
| 2026-04-21 08:59 | 22.30641 | 113.92970 | 39 ft | 63 kts | 250° |
| 2026-04-21 08:59 | 22.30413 | 113.92263 | 38 ft | 133 kts | 250° |
| 2026-04-21 08:59 | 22.30045 | 113.91135 | 136 ft | 175 kts | 248° |
| 2026-04-21 08:59 | 22.29654 | 113.89916 | 893 ft | 166 kts | 246° |
| 2026-04-21 09:00 | 22.29249 | 113.88716 | 1500 ft | 177 kts | 246° |
| 2026-04-21 09:00 | 22.28829 | 113.87504 | 2291 ft | 170 kts | 246° |
| 2026-04-21 09:00 | 22.28382 | 113.86259 | 2778 ft | 183 kts | 239° |
| 2026-04-21 09:00 | 22.27667 | 113.85012 | 3080 ft | 210 kts | 231° |
| 2026-04-21 09:01 | 22.26793 | 113.83657 | 3637 ft | 228 kts | 231° |
| 2026-04-21 09:01 | 22.25832 | 113.82270 | 4372 ft | 231 kts | 220° |
| 2026-04-21 09:01 | 22.24445 | 113.81429 | 5077 ft | 232 kts | 193° |
| 2026-04-21 09:01 | 22.22840 | 113.81198 | 5912 ft | 235 kts | 184° |
| 2026-04-21 09:02 | 22.21186 | 113.81144 | 6670 ft | 240 kts | 179° |
| 2026-04-21 09:02 | 22.19555 | 113.81632 | 7325 ft | 252 kts | 152° |
| 2026-04-21 09:02 | 22.18185 | 113.82864 | 8083 ft | 262 kts | 136° |
| 2026-04-21 09:03 | 22.15845 | 113.85979 | 9037 ft | 276 kts | 120° |
| 2026-04-21 09:03 | 22.15082 | 113.87913 | 9029 ft | 282 kts | 114° |
| 2026-04-21 09:03 | 22.14388 | 113.89888 | 9031 ft | 281 kts | 115° |
| 2026-04-21 09:03 | 22.13721 | 113.91846 | 9012 ft | 276 kts | 107° |
| 2026-04-21 09:04 | 22.13464 | 113.93943 | 9105 ft | 292 kts | 96° |
| 2026-04-21 09:04 | 22.13306 | 113.96184 | 9667 ft | 306 kts | 97° |
| 2026-04-21 09:04 | 22.13118 | 113.98507 | 10277 ft | 318 kts | 98° |
| 2026-04-21 09:04 | 22.12902 | 114.00978 | 10531 ft | 346 kts | 98° |
| 2026-04-21 09:05 | 22.12659 | 114.03667 | 10747 ft | 373 kts | 98° |
| 2026-04-21 09:05 | 22.12391 | 114.06530 | 11143 ft | 391 kts | 99° |
| 2026-04-21 09:05 | 22.11959 | 114.09464 | 11751 ft | 400 kts | 102° |
| 2026-04-21 09:05 | 22.11421 | 114.12428 | 11859 ft | 405 kts | 103° |
| 2026-04-21 09:06 | 22.10872 | 114.15400 | 11869 ft | 404 kts | 103° |
| 2026-04-21 09:06 | 22.10349 | 114.18367 | 11878 ft | 402 kts | 102° |
| 2026-04-21 09:06 | 22.09842 | 114.21324 | 11872 ft | 401 kts | 102° |
| 2026-04-21 09:06 | 22.09340 | 114.24295 | 12109 ft | 406 kts | 102° |
| 2026-04-21 09:07 | 22.08830 | 114.27311 | 12939 ft | 411 kts | 102° |
| 2026-04-21 09:07 | 22.08315 | 114.30348 | 13834 ft | 414 kts | 102° |
| 2026-04-21 09:07 | 22.07794 | 114.33417 | 14562 ft | 418 kts | 102° |
| 2026-04-21 09:07 | 22.07077 | 114.36446 | 15138 ft | 421 kts | 114° |
| 2026-04-21 09:08 | 22.05577 | 114.39139 | 15692 ft | 420 kts | 128° |
| 2026-04-21 09:08 | 22.03838 | 114.41700 | 16331 ft | 426 kts | 127° |
| 2026-04-21 09:08 | 22.02117 | 114.44313 | 17086 ft | 430 kts | 126° |
| 2026-04-21 09:08 | 22.00413 | 114.46972 | 17820 ft | 433 kts | 126° |
| 2026-04-21 09:09 | 21.98708 | 114.49675 | 18450 ft | 438 kts | 125° |
| 2026-04-21 09:09 | 21.96986 | 114.52412 | 19013 ft | 443 kts | 125° |
| 2026-04-21 09:09 | 21.95228 | 114.55154 | 19580 ft | 445 kts | 126° |
| 2026-04-21 09:09 | 21.93709 | 114.58078 | 19971 ft | 454 kts | 111° |
| 2026-04-21 09:10 | 21.92956 | 114.61395 | 20508 ft | 459 kts | 96° |
| 2026-04-21 09:10 | 21.92898 | 114.64831 | 21126 ft | 458 kts | 86° |
| 2026-04-21 09:10 | 21.93061 | 114.68279 | 21608 ft | 464 kts | 87° |
| 2026-04-21 09:10 | 21.93199 | 114.71771 | 22114 ft | 469 kts | 87° |
| 2026-04-21 09:11 | 21.93321 | 114.75298 | 22671 ft | 473 kts | 87° |
| 2026-04-21 09:11 | 21.93434 | 114.78843 | 23232 ft | 476 kts | 88° |
| 2026-04-21 09:11 | 21.93541 | 114.82422 | 23698 ft | 480 kts | 88° |
| 2026-04-21 09:11 | 21.93646 | 114.86028 | 24122 ft | 483 kts | 88° |
| 2026-04-21 09:12 | 21.93750 | 114.89661 | 24558 ft | 487 kts | 88° |
| 2026-04-21 09:12 | 21.93854 | 114.93319 | 24982 ft | 490 kts | 88° |
| 2026-04-21 09:12 | 21.93957 | 114.96997 | 25407 ft | 493 kts | 88° |
| 2026-04-21 09:12 | 21.94061 | 115.00700 | 25825 ft | 497 kts | 88° |
| 2026-04-21 09:13 | 21.94163 | 115.04381 | 26232 ft | 500 kts | 88° |
| 2026-04-21 09:13 | 21.94267 | 115.08133 | 26643 ft | 503 kts | 88° |
| 2026-04-21 09:13 | 21.94371 | 115.11906 | 27042 ft | 506 kts | 88° |
| 2026-04-21 09:13 | 21.94476 | 115.15758 | 27449 ft | 509 kts | 88° |
| 2026-04-21 09:14 | 21.94578 | 115.19531 | 27842 ft | 512 kts | 88° |
| 2026-04-21 09:14 | 21.94681 | 115.23377 | 28225 ft | 515 kts | 88° |
| 2026-04-21 09:14 | 21.94784 | 115.27247 | 28606 ft | 518 kts | 88° |
| 2026-04-21 09:14 | 21.94886 | 115.31137 | 28974 ft | 521 kts | 88° |
| 2026-04-21 09:15 | 21.94988 | 115.35044 | 29317 ft | 524 kts | 88° |
| 2026-04-21 09:15 | 21.95089 | 115.38976 | 29660 ft | 527 kts | 88° |
| 2026-04-21 09:15 | 21.95191 | 115.42931 | 29967 ft | 529 kts | 88° |
| 2026-04-21 09:15 | 21.95291 | 115.46896 | 30264 ft | 531 kts | 88° |
| 2026-04-21 09:16 | 21.95391 | 115.50873 | 30632 ft | 530 kts | 88° |
| 2026-04-21 09:16 | 21.95490 | 115.54844 | 30990 ft | 531 kts | 88° |
| 2026-04-21 09:16 | 21.95588 | 115.58820 | 31331 ft | 531 kts | 88° |
| 2026-04-21 09:16 | 21.95684 | 115.62784 | 31730 ft | 530 kts | 88° |
| 2026-04-21 09:17 | 21.95780 | 115.66753 | 32162 ft | 528 kts | 87° |
| 2026-04-21 09:17 | 21.95874 | 115.70702 | 32589 ft | 527 kts | 87° |
| 2026-04-21 09:17 | 21.95967 | 115.74645 | 32972 ft | 527 kts | 87° |
| 2026-04-21 09:17 | 21.96060 | 115.78588 | 33340 ft | 526 kts | 87° |
| 2026-04-21 09:18 | 21.96151 | 115.82532 | 33729 ft | 526 kts | 87° |
| 2026-04-21 09:18 | 21.96242 | 115.86464 | 34083 ft | 525 kts | 87° |
| 2026-04-21 09:18 | 21.96331 | 115.90385 | 34438 ft | 523 kts | 87° |
| 2026-04-21 09:18 | 21.96419 | 115.94297 | 34801 ft | 521 kts | 87° |
| 2026-04-21 09:19 | 21.96505 | 115.98186 | 35161 ft | 519 kts | 87° |
| 2026-04-21 09:19 | 21.96562 | 116.00769 | 35392 ft | 518 kts | 86° |
| 2026-04-21 09:19 | 21.96646 | 116.04645 | 35721 ft | 517 kts | 86° |
| 2026-04-21 09:19 | 21.96730 | 116.08506 | 36041 ft | 516 kts | 86° |
| 2026-04-21 09:20 | 21.96840 | 116.13679 | 36466 ft | 514 kts | 86° |
| 2026-04-21 09:20 | 21.96894 | 116.16223 | 36674 ft | 513 kts | 86° |
| 2026-04-21 09:20 | 21.96975 | 116.20069 | 36840 ft | 516 kts | 86° |
| 2026-04-21 09:20 | 21.97056 | 116.23942 | 36880 ft | 518 kts | 86° |
| 2026-04-21 09:21 | 21.97214 | 116.31695 | 36887 ft | 515 kts | 86° |
| 2026-04-21 09:21 | 21.97365 | 116.39373 | 36891 ft | 511 kts | 86° |
| 2026-04-21 09:22 | 21.97513 | 116.47013 | 36900 ft | 509 kts | 86° |
| 2026-04-21 09:22 | 21.97658 | 116.54634 | 36904 ft | 509 kts | 86° |
| 2026-04-21 09:23 | 21.97799 | 116.62272 | 36900 ft | 511 kts | 86° |
| 2026-04-21 09:23 | 21.97938 | 116.69933 | 36907 ft | 513 kts | 86° |
| 2026-04-21 09:24 | 21.98073 | 116.77626 | 36908 ft | 515 kts | 86° |
| 2026-04-21 09:24 | 21.98205 | 116.85351 | 36906 ft | 517 kts | 86° |
| 2026-04-21 09:25 | 21.98334 | 116.93104 | 36901 ft | 518 kts | 86° |
| 2026-04-21 09:25 | 21.98459 | 117.00869 | 36902 ft | 519 kts | 86° |
| 2026-04-21 09:26 | 21.98581 | 117.08649 | 36909 ft | 519 kts | 86° |
| 2026-04-21 09:26 | 21.98699 | 117.16431 | 36907 ft | 520 kts | 86° |
| 2026-04-21 09:27 | 21.98813 | 117.24210 | 36907 ft | 520 kts | 86° |
| 2026-04-21 09:27 | 21.98924 | 117.32005 | 36907 ft | 520 kts | 86° |
| 2026-04-21 09:28 | 21.99031 | 117.39736 | 36908 ft | 519 kts | 86° |
| 2026-04-21 09:28 | 21.99485 | 117.47471 | 36897 ft | 514 kts | 75° |
| 2026-04-21 09:29 | 22.01763 | 117.54729 | 36911 ft | 505 kts | 59° |
| 2026-04-21 09:29 | 22.05374 | 117.61164 | 36914 ft | 501 kts | 53° |
| 2026-04-21 09:30 | 22.09100 | 117.67527 | 36911 ft | 502 kts | 53° |
| 2026-04-21 09:30 | 22.12774 | 117.73948 | 36913 ft | 504 kts | 54° |
| 2026-04-21 09:31 | 22.16400 | 117.80364 | 36915 ft | 505 kts | 54° |
| 2026-04-21 09:31 | 22.20060 | 117.86845 | 36914 ft | 506 kts | 54° |
| 2026-04-21 09:32 | 22.23726 | 117.93336 | 36914 ft | 507 kts | 54° |
| 2026-04-21 09:32 | 22.26630 | 118.00283 | 36919 ft | 516 kts | 74° |
| 2026-04-21 09:33 | 22.27155 | 118.04135 | 36920 ft | 521 kts | 85° |
| 2026-04-21 09:33 | 22.26999 | 118.08053 | 36925 ft | 525 kts | 96° |
| 2026-04-21 09:33 | 22.25909 | 118.15844 | 36922 ft | 526 kts | 96° |
| 2026-04-21 09:34 | 22.24980 | 118.23677 | 36915 ft | 526 kts | 95° |
| 2026-04-21 09:34 | 22.24099 | 118.31526 | 36918 ft | 527 kts | 95° |
| 2026-04-21 09:35 | 22.23197 | 118.39374 | 36915 ft | 527 kts | 95° |
| 2026-04-21 09:35 | 22.22280 | 118.47214 | 36920 ft | 527 kts | 95° |
| 2026-04-21 09:36 | 22.21362 | 118.55049 | 36917 ft | 526 kts | 95° |
| 2026-04-21 09:36 | 22.20448 | 118.62827 | 36917 ft | 525 kts | 95° |
| 2026-04-21 09:37 | 22.19520 | 118.70692 | 36922 ft | 525 kts | 95° |
| 2026-04-21 09:37 | 22.18602 | 118.78443 | 36919 ft | 524 kts | 95° |
| 2026-04-21 09:38 | 22.17674 | 118.86239 | 36920 ft | 523 kts | 95° |
| 2026-04-21 09:38 | 22.16746 | 118.94019 | 36920 ft | 523 kts | 95° |
| 2026-04-21 09:39 | 22.15810 | 119.01800 | 36919 ft | 523 kts | 96° |
| 2026-04-21 09:39 | 22.14865 | 119.09568 | 36920 ft | 522 kts | 96° |
| 2026-04-21 09:40 | 22.13923 | 119.17335 | 36921 ft | 522 kts | 96° |
| 2026-04-21 09:40 | 22.12979 | 119.25110 | 36922 ft | 523 kts | 96° |
| 2026-04-21 09:41 | 22.12033 | 119.32881 | 36921 ft | 523 kts | 96° |
| 2026-04-21 09:41 | 22.11081 | 119.40650 | 36924 ft | 523 kts | 96° |
| 2026-04-21 09:42 | 22.10125 | 119.48429 | 36925 ft | 523 kts | 96° |
| 2026-04-21 09:42 | 22.09164 | 119.56215 | 36920 ft | 524 kts | 96° |
| 2026-04-21 09:43 | 22.08200 | 119.63996 | 36924 ft | 524 kts | 96° |
| 2026-04-21 09:43 | 22.07230 | 119.71783 | 36923 ft | 524 kts | 96° |
| 2026-04-21 09:44 | 22.06252 | 119.79570 | 36920 ft | 524 kts | 96° |
| 2026-04-21 09:44 | 22.05271 | 119.87361 | 36920 ft | 524 kts | 96° |
| 2026-04-21 09:45 | 22.04289 | 119.95147 | 36921 ft | 525 kts | 96° |
| 2026-04-21 09:45 | 22.03307 | 120.02937 | 36921 ft | 525 kts | 96° |
| 2026-04-21 09:46 | 22.02324 | 120.10733 | 36918 ft | 525 kts | 96° |
| 2026-04-21 09:46 | 22.01328 | 120.18526 | 36925 ft | 525 kts | 97° |
| 2026-04-21 09:47 | 22.00326 | 120.26330 | 36922 ft | 526 kts | 97° |
| 2026-04-21 09:47 | 21.99324 | 120.34122 | 36928 ft | 526 kts | 97° |
| 2026-04-21 09:48 | 21.98318 | 120.41927 | 36931 ft | 526 kts | 96° |
| 2026-04-21 09:48 | 21.97306 | 120.49738 | 36937 ft | 526 kts | 97° |
| 2026-04-21 09:49 | 21.96295 | 120.57520 | 36942 ft | 526 kts | 97° |
| 2026-04-21 09:49 | 21.95277 | 120.65324 | 36950 ft | 525 kts | 97° |
| 2026-04-21 09:50 | 21.94601 | 120.70488 | 36951 ft | 525 kts | 97° |
| 2026-04-21 09:50 | 21.93358 | 120.80870 | 36953 ft | 524 kts | 91° |
| 2026-04-21 09:51 | 21.93562 | 120.88678 | 36960 ft | 520 kts | 81° |
| 2026-04-21 09:51 | 21.94847 | 120.96316 | 36962 ft | 518 kts | 75° |
| 2026-04-21 09:52 | 21.96301 | 121.03917 | 36955 ft | 518 kts | 76° |
| 2026-04-21 09:52 | 21.97676 | 121.11539 | 36959 ft | 518 kts | 76° |
| 2026-04-21 09:53 | 21.99891 | 121.18848 | 36966 ft | 510 kts | 60° |
| 2026-04-21 09:53 | 22.03661 | 121.25230 | 36956 ft | 502 kts | 46° |
| 2026-04-21 09:54 | 22.08127 | 121.31014 | 36962 ft | 502 kts | 46° |
| 2026-04-21 09:54 | 22.12555 | 121.36859 | 36967 ft | 504 kts | 47° |
| 2026-04-21 09:55 | 22.16951 | 121.42764 | 36970 ft | 505 kts | 47° |
| 2026-04-21 09:55 | 22.21348 | 121.48681 | 36967 ft | 506 kts | 47° |
| 2026-04-21 09:56 | 22.25751 | 121.54612 | 36978 ft | 506 kts | 47° |
| 2026-04-21 09:56 | 22.30159 | 121.60555 | 36969 ft | 507 kts | 47° |
| 2026-04-21 09:57 | 22.34569 | 121.66509 | 36967 ft | 508 kts | 47° |
| 2026-04-21 09:57 | 22.38980 | 121.72466 | 36967 ft | 508 kts | 47° |
| 2026-04-21 09:58 | 22.43399 | 121.78433 | 36974 ft | 508 kts | 47° |
| 2026-04-21 09:58 | 22.47812 | 121.84399 | 36984 ft | 508 kts | 46° |
| 2026-04-21 09:59 | 22.52224 | 121.90373 | 36978 ft | 509 kts | 46° |
| 2026-04-21 09:59 | 22.56643 | 121.96365 | 36979 ft | 509 kts | 46° |
| 2026-04-21 10:00 | 22.61058 | 122.02358 | 36992 ft | 509 kts | 46° |
| 2026-04-21 10:00 | 22.65473 | 122.08356 | 36987 ft | 510 kts | 47° |
| 2026-04-21 10:01 | 22.69889 | 122.14364 | 36995 ft | 510 kts | 47° |
| 2026-04-21 10:01 | 22.74312 | 122.20387 | 36989 ft | 511 kts | 47° |
| 2026-04-21 10:02 | 22.80911 | 122.29389 | 36993 ft | 511 kts | 47° |
| 2026-04-21 10:03 | 22.85359 | 122.35464 | 36993 ft | 511 kts | 47° |
| 2026-04-21 10:03 | 22.89773 | 122.41501 | 37004 ft | 511 kts | 47° |
| 2026-04-21 10:04 | 22.94165 | 122.47515 | 36992 ft | 512 kts | 47° |
| 2026-04-21 10:04 | 22.98582 | 122.53569 | 36993 ft | 512 kts | 47° |
| 2026-04-21 10:05 | 23.02995 | 122.59625 | 36998 ft | 512 kts | 47° |
| 2026-04-21 10:05 | 23.06690 | 122.64701 | 36997 ft | 511 kts | 47° |
| 2026-04-21 10:06 | 23.11099 | 122.70765 | 36998 ft | 511 kts | 47° |
| 2026-04-21 10:06 | 23.15501 | 122.76827 | 36993 ft | 511 kts | 47° |
| 2026-04-21 10:07 | 23.19872 | 122.82853 | 36998 ft | 511 kts | 47° |
| 2026-04-21 10:07 | 23.24271 | 122.88926 | 36994 ft | 511 kts | 47° |
| 2026-04-21 10:08 | 23.28661 | 122.94993 | 37001 ft | 510 kts | 47° |
| 2026-04-21 10:08 | 23.33014 | 123.01091 | 37001 ft | 512 kts | 50° |
| 2026-04-21 10:09 | 23.36981 | 123.07286 | 37008 ft | 513 kts | 52° |
| 2026-04-21 10:09 | 23.40988 | 123.13711 | 37002 ft | 513 kts | 52° |
| 2026-04-21 10:10 | 23.45004 | 123.20124 | 37007 ft | 512 kts | 51° |
| 2026-04-21 10:10 | 23.49032 | 123.26521 | 37002 ft | 512 kts | 51° |
| 2026-04-21 10:11 | 23.53061 | 123.32912 | 37011 ft | 512 kts | 51° |
| 2026-04-21 10:11 | 23.57087 | 123.39310 | 37002 ft | 511 kts | 51° |
| 2026-04-21 10:12 | 23.61105 | 123.45706 | 37005 ft | 511 kts | 51° |
| 2026-04-21 10:12 | 23.65116 | 123.52100 | 37006 ft | 511 kts | 51° |
| 2026-04-21 10:13 | 23.69125 | 123.58499 | 37030 ft | 511 kts | 51° |
| 2026-04-21 10:13 | 23.73136 | 123.64907 | 37008 ft | 511 kts | 51° |
| 2026-04-21 10:14 | 23.77144 | 123.71322 | 37001 ft | 512 kts | 51° |
| 2026-04-21 10:14 | 23.81150 | 123.77740 | 37003 ft | 512 kts | 51° |
| 2026-04-21 10:15 | 23.85156 | 123.84167 | 37007 ft | 511 kts | 51° |
| 2026-04-21 10:15 | 23.89154 | 123.90591 | 37018 ft | 511 kts | 51° |
| 2026-04-21 10:16 | 23.93154 | 123.97024 | 37015 ft | 511 kts | 51° |
| 2026-04-21 10:16 | 23.97176 | 124.03437 | 37015 ft | 511 kts | 50° |
| 2026-04-21 10:17 | 24.01284 | 124.09766 | 37013 ft | 510 kts | 50° |
| 2026-04-21 10:17 | 24.05402 | 124.16083 | 37019 ft | 510 kts | 50° |
| 2026-04-21 10:18 | 24.09349 | 124.22176 | 37007 ft | 510 kts | 50° |
| 2026-04-21 10:18 | 24.13466 | 124.28560 | 37007 ft | 509 kts | 50° |
| 2026-04-21 10:19 | 24.17535 | 124.34882 | 37004 ft | 508 kts | 50° |
| 2026-04-21 10:19 | 24.21606 | 124.41213 | 37004 ft | 508 kts | 50° |
| 2026-04-21 10:20 | 24.25675 | 124.47549 | 37007 ft | 508 kts | 50° |
| 2026-04-21 10:20 | 24.29733 | 124.53874 | 37012 ft | 507 kts | 50° |
| 2026-04-21 10:21 | 24.33761 | 124.60160 | 37020 ft | 507 kts | 50° |
| 2026-04-21 10:21 | 24.37835 | 124.66528 | 37020 ft | 507 kts | 50° |
| 2026-04-21 10:22 | 24.41852 | 124.72813 | 37020 ft | 506 kts | 50° |
| 2026-04-21 10:22 | 24.45887 | 124.79137 | 37036 ft | 506 kts | 50° |
| 2026-04-21 10:23 | 24.49921 | 124.85465 | 37029 ft | 506 kts | 50° |
| 2026-04-21 10:23 | 24.53949 | 124.91792 | 37023 ft | 505 kts | 50° |
| 2026-04-21 10:24 | 24.57972 | 124.98121 | 37030 ft | 505 kts | 50° |
| 2026-04-21 10:24 | 24.61988 | 125.04446 | 37013 ft | 504 kts | 50° |
| 2026-04-21 10:25 | 24.66000 | 125.10774 | 37015 ft | 504 kts | 50° |
| 2026-04-21 10:25 | 24.70004 | 125.17098 | 36998 ft | 504 kts | 50° |
| 2026-04-21 10:26 | 24.74008 | 125.23430 | 37022 ft | 504 kts | 50° |
| 2026-04-21 10:26 | 24.78003 | 125.29756 | 37023 ft | 504 kts | 51° |
| 2026-04-21 10:27 | 24.81807 | 125.36247 | 36978 ft | 504 kts | 54° |
| 2026-04-21 10:27 | 24.83630 | 125.39524 | 36709 ft | 503 kts | 54° |
| 2026-04-21 10:27 | 24.85455 | 125.42822 | 36322 ft | 505 kts | 54° |
| 2026-04-21 10:27 | 24.87287 | 125.46118 | 35902 ft | 507 kts | 54° |
| 2026-04-21 10:28 | 24.89146 | 125.49440 | 35491 ft | 509 kts | 54° |
| 2026-04-21 10:28 | 24.91012 | 125.52755 | 35039 ft | 511 kts | 54° |
| 2026-04-21 10:28 | 24.92895 | 125.56090 | 34636 ft | 513 kts | 54° |
| 2026-04-21 10:28 | 24.94779 | 125.59424 | 34377 ft | 511 kts | 54° |
| 2026-04-21 10:29 | 24.96649 | 125.62737 | 34206 ft | 507 kts | 54° |
| 2026-04-21 10:29 | 24.98503 | 125.66023 | 34034 ft | 504 kts | 54° |
| 2026-04-21 10:29 | 25.00352 | 125.69303 | 33751 ft | 503 kts | 54° |
| 2026-04-21 10:29 | 25.02196 | 125.72574 | 33423 ft | 502 kts | 54° |
| 2026-04-21 10:30 | 25.04038 | 125.75844 | 33104 ft | 502 kts | 55° |
| 2026-04-21 10:30 | 25.05881 | 125.79119 | 32713 ft | 504 kts | 56° |
| 2026-04-21 10:30 | 25.07726 | 125.82400 | 32369 ft | 504 kts | 56° |
| 2026-04-21 10:30 | 25.09574 | 125.85689 | 32107 ft | 503 kts | 56° |
| 2026-04-21 10:31 | 25.11411 | 125.88964 | 31643 ft | 501 kts | 56° |
| 2026-04-21 10:31 | 25.13240 | 125.92227 | 31121 ft | 498 kts | 56° |
| 2026-04-21 10:31 | 25.15057 | 125.95468 | 30613 ft | 496 kts | 57° |
| 2026-04-21 10:31 | 25.16844 | 125.98659 | 30081 ft | 495 kts | 57° |
| 2026-04-21 10:32 | 25.18647 | 126.01881 | 29473 ft | 493 kts | 57° |
| 2026-04-21 10:32 | 25.20445 | 126.05095 | 28898 ft | 490 kts | 57° |
| 2026-04-21 10:32 | 25.22230 | 126.08288 | 28342 ft | 487 kts | 57° |
| 2026-04-21 10:32 | 25.24002 | 126.11461 | 27797 ft | 484 kts | 57° |
| 2026-04-21 10:33 | 25.25763 | 126.14616 | 27274 ft | 481 kts | 57° |
| 2026-04-21 10:33 | 25.27515 | 126.17756 | 26744 ft | 479 kts | 57° |
| 2026-04-21 10:33 | 25.29257 | 126.20880 | 26222 ft | 476 kts | 57° |
| 2026-04-21 10:33 | 25.30989 | 126.23990 | 25706 ft | 474 kts | 57° |
| 2026-04-21 10:34 | 25.32714 | 126.27087 | 25165 ft | 473 kts | 57° |
| 2026-04-21 10:34 | 25.34433 | 126.30178 | 24643 ft | 471 kts | 57° |
| 2026-04-21 10:34 | 25.36144 | 126.33255 | 24182 ft | 468 kts | 57° |
| 2026-04-21 10:34 | 25.37844 | 126.36315 | 23716 ft | 466 kts | 57° |
| 2026-04-21 10:35 | 25.39535 | 126.39360 | 23143 ft | 464 kts | 58° |
| 2026-04-21 10:35 | 25.41218 | 126.42394 | 22572 ft | 461 kts | 58° |
| 2026-04-21 10:35 | 25.42890 | 126.45408 | 22072 ft | 458 kts | 58° |
| 2026-04-21 10:35 | 25.44551 | 126.48407 | 21547 ft | 455 kts | 58° |
| 2026-04-21 10:36 | 25.46199 | 126.51382 | 21039 ft | 452 kts | 58° |
| 2026-04-21 10:36 | 25.47837 | 126.54339 | 20526 ft | 449 kts | 58° |
| 2026-04-21 10:36 | 25.49460 | 126.57280 | 20023 ft | 446 kts | 58° |
| 2026-04-21 10:36 | 25.51070 | 126.60208 | 19509 ft | 444 kts | 58° |
| 2026-04-21 10:37 | 25.52664 | 126.63111 | 19002 ft | 435 kts | 58° |
| 2026-04-21 10:37 | 25.54208 | 126.65925 | 18490 ft | 420 kts | 58° |
| 2026-04-21 10:37 | 25.55698 | 126.68642 | 17966 ft | 406 kts | 58° |
| 2026-04-21 10:37 | 25.57140 | 126.71272 | 17454 ft | 392 kts | 58° |
| 2026-04-21 10:38 | 25.58551 | 126.73846 | 17016 ft | 390 kts | 58° |
| 2026-04-21 10:38 | 25.59956 | 126.76410 | 16560 ft | 388 kts | 59° |
| 2026-04-21 10:38 | 25.61356 | 126.78966 | 16107 ft | 387 kts | 59° |
| 2026-04-21 10:38 | 25.62750 | 126.81512 | 15642 ft | 386 kts | 59° |
| 2026-04-21 10:39 | 25.64146 | 126.84065 | 15073 ft | 389 kts | 59° |
| 2026-04-21 10:39 | 25.65548 | 126.86630 | 14586 ft | 389 kts | 59° |
| 2026-04-21 10:39 | 25.66931 | 126.89161 | 14101 ft | 377 kts | 59° |
| 2026-04-21 10:39 | 25.68265 | 126.91604 | 13634 ft | 364 kts | 59° |
| 2026-04-21 10:40 | 25.69553 | 126.93962 | 13152 ft | 351 kts | 58° |
| 2026-04-21 10:40 | 25.70805 | 126.96258 | 12734 ft | 348 kts | 58° |
| 2026-04-21 10:40 | 25.72062 | 126.98562 | 12316 ft | 351 kts | 58° |
| 2026-04-21 10:40 | 25.73335 | 127.00898 | 11904 ft | 357 kts | 58° |
| 2026-04-21 10:41 | 25.74624 | 127.03264 | 11432 ft | 356 kts | 58° |
| 2026-04-21 10:41 | 25.75884 | 127.05579 | 10995 ft | 345 kts | 58° |
| 2026-04-21 10:41 | 25.77104 | 127.07822 | 10646 ft | 335 kts | 58° |
| 2026-04-21 10:41 | 25.78291 | 127.10007 | 10507 ft | 325 kts | 58° |
| 2026-04-21 10:42 | 25.79426 | 127.12096 | 10344 ft | 307 kts | 57° |
| 2026-04-21 10:42 | 25.80496 | 127.14067 | 10201 ft | 289 kts | 57° |
| 2026-04-21 10:42 | 25.81502 | 127.15919 | 10089 ft | 279 kts | 57° |
| 2026-04-21 10:42 | 25.82505 | 127.17764 | 9967 ft | 284 kts | 57° |
| 2026-04-21 10:43 | 25.83554 | 127.19692 | 9661 ft | 297 kts | 57° |
| 2026-04-21 10:43 | 25.84628 | 127.21670 | 9320 ft | 300 kts | 57° |
| 2026-04-21 10:43 | 25.85696 | 127.23641 | 8962 ft | 295 kts | 58° |
| 2026-04-21 10:43 | 25.86737 | 127.25563 | 8627 ft | 287 kts | 58° |
| 2026-04-21 10:44 | 25.87760 | 127.27451 | 8325 ft | 285 kts | 58° |
| 2026-04-21 10:44 | 25.88780 | 127.29334 | 8007 ft | 284 kts | 58° |
| 2026-04-21 10:44 | 25.89788 | 127.31212 | 7683 ft | 283 kts | 60° |
| 2026-04-21 10:44 | 25.90692 | 127.33145 | 7368 ft | 279 kts | 63° |
| 2026-04-21 10:45 | 25.91522 | 127.35057 | 7067 ft | 273 kts | 64° |
| 2026-04-21 10:45 | 25.92340 | 127.36959 | 6780 ft | 272 kts | 64° |
| 2026-04-21 10:45 | 25.93159 | 127.38856 | 6472 ft | 272 kts | 64° |
| 2026-04-21 10:45 | 25.93979 | 127.40744 | 6142 ft | 271 kts | 64° |
| 2026-04-21 10:46 | 25.94800 | 127.42629 | 5828 ft | 270 kts | 64° |
| 2026-04-21 10:46 | 25.95620 | 127.44507 | 5509 ft | 270 kts | 64° |
| 2026-04-21 10:46 | 25.96438 | 127.46375 | 5202 ft | 269 kts | 65° |
| 2026-04-21 10:46 | 25.97251 | 127.48236 | 4895 ft | 267 kts | 64° |
| 2026-04-21 10:47 | 25.98062 | 127.50087 | 4575 ft | 266 kts | 64° |
| 2026-04-21 10:47 | 25.98869 | 127.51931 | 4281 ft | 264 kts | 64° |
| 2026-04-21 10:47 | 25.99670 | 127.53762 | 3978 ft | 263 kts | 64° |
| 2026-04-21 10:47 | 26.00461 | 127.55568 | 3677 ft | 255 kts | 64° |
| 2026-04-21 10:48 | 26.01222 | 127.57308 | 3375 ft | 245 kts | 64° |
| 2026-04-21 10:48 | 26.01948 | 127.58965 | 3155 ft | 231 kts | 64° |
| 2026-04-21 10:48 | 26.02621 | 127.60505 | 3042 ft | 213 kts | 64° |
| 2026-04-21 10:48 | 26.03251 | 127.61946 | 2945 ft | 204 kts | 64° |
| 2026-04-21 10:49 | 26.03870 | 127.63358 | 2889 ft | 204 kts | 63° |
| 2026-04-21 10:49 | 26.04792 | 127.64525 | 2647 ft | 202 kts | 30° |
| 2026-04-21 10:49 | 26.06123 | 127.64876 | 2374 ft | 194 kts | 5° |
| 2026-04-21 10:49 | 26.07448 | 127.64973 | 2096 ft | 188 kts | 5° |
| 2026-04-21 10:50 | 26.08305 | 127.65001 | 1939 ft | 183 kts | 1° |
| 2026-04-21 10:50 | 26.09920 | 127.64949 | 1608 ft | 164 kts | 360° |
| 2026-04-21 10:50 | 26.11061 | 127.64900 | 1428 ft | 164 kts | 360° |
| 2026-04-21 10:50 | 26.11806 | 127.64867 | 1274 ft | 160 kts | 0° |
| 2026-04-21 10:51 | 26.13266 | 127.64805 | 998 ft | 157 kts | 0° |
| 2026-04-21 10:51 | 26.14358 | 127.64760 | 810 ft | 157 kts | 360° |
| 2026-04-21 10:51 | 26.15077 | 127.64725 | 674 ft | 155 kts | 0° |
| 2026-04-21 10:51 | 26.16149 | 127.64696 | 454 ft | 152 kts | 359° |
| 2026-04-21 10:52 | 26.17199 | 127.64676 | 295 ft | 152 kts | 0° |
| 2026-04-21 10:52 | 26.18265 | 127.64644 | 64 ft | 153 kts | 359° |
| 2026-04-21 10:52 | 26.19270 | 127.64602 | 28 ft | 128 kts | 357° |
| 2026-04-21 10:52 | 26.20008 | 127.64567 | 20 ft | 84 kts | 357° |
| 2026-04-21 10:53 | 26.20517 | 127.64542 | 24 ft | 26 kts | 357° |
| 2026-04-21 10:53 | 26.20613 | 127.64588 | 26 ft | 14 kts | 63° |
| 2026-04-21 10:53 | 26.20624 | 127.64653 | 22 ft | 12 kts | 84° |
| 2026-04-21 10:53 | 26.20654 | 127.64723 | 20 ft | 9 kts | 38° |
| 2026-04-21 10:54 | 26.20715 | 127.64741 | 23 ft | 6 kts | 356° |
| 2026-04-21 10:54 | 26.20759 | 127.64738 | 25 ft | 6 kts | 357° |
| 2026-04-21 10:54 | 26.20807 | 127.64736 | 23 ft | 8 kts | 358° |
| 2026-04-21 10:54 | 26.20869 | 127.64748 | 24 ft | 10 kts | 30° |
| 2026-04-21 10:55 | 26.20907 | 127.64810 | 29 ft | 10 kts | 73° |
| 2026-04-21 10:55 | 26.20947 | 127.64872 | 27 ft | 10 kts | 28° |
| 2026-04-21 10:55 | 26.21013 | 127.64884 | 26 ft | 10 kts | 359° |
| 2026-04-21 10:55 | 26.21085 | 127.64881 | 31 ft | 11 kts | 357° |
| 2026-04-21 10:56 | 26.21143 | 127.64901 | 30 ft | 8 kts | 54° |
| 2026-04-21 10:56 | 26.21151 | 127.64944 | 26 ft | 1 kts | 89° |
| 2026-04-21 10:56 | 26.21151 | 127.64960 | 26 ft | 2 kts | 89° |
| 2026-04-21 10:56 | 26.21151 | 127.64961 | 26 ft | 0 kts | 89° |